Time;durP1;ratioP1;P1;durP2;ratioP2;P2;SDS_P1;SDS_P2;PMS_P1;PMS_P2;Temp;Humidity;BMP_temperature;BMP_pressure;BME280_temperature;BME280_humidity;BME280_pressure;Samples;Min_cycle;Max_cycle;Signal;HPM_P1;HPM_P2
2022/12/12 00:00:32;;;;;;;32.65;18.10;;;;;;;;;;5054549;28;20052;-66
2022/12/12 00:02:59;;;;;;;28.77;16.65;;;;;;;;;;5054449;28;20048;-66
2022/12/12 00:05:25;;;;;;;35.03;17.65;;;;;;;;;;5054294;28;20057;-66
2022/12/12 00:07:52;;;;;;;28.83;16.52;;;;;;;;;;5054363;28;20135;-66
2022/12/12 00:10:19;;;;;;;28.42;16.88;;;;;;;;;;5054311;28;20089;-67
2022/12/12 00:12:45;;;;;;;29.50;16.02;;;;;;;;;;5054511;28;20055;-67
2022/12/12 00:15:12;;;;;;;30.80;16.00;;;;;;;;;;5054215;28;20041;-67
2022/12/12 00:17:39;;;;;;;29.83;17.40;;;;;;;;;;5054156;28;20080;-66
2022/12/12 00:20:05;;;;;;;31.92;16.83;;;;;;;;;;5054340;28;20051;-66
2022/12/12 00:22:32;;;;;;;34.13;16.60;;;;;;;;;;5054072;28;20140;-66
2022/12/12 00:24:58;;;;;;;28.55;16.20;;;;;;;;;;5054085;28;20057;-66
2022/12/12 00:27:25;;;;;;;30.73;16.80;;;;;;;;;;5054150;28;20132;-67
2022/12/12 00:29:52;;;;;;;31.10;16.27;;;;;;;;;;5054094;28;20052;-67
2022/12/12 00:32:18;;;;;;;30.45;17.60;;;;;;;;;;5052395;28;20073;-67
2022/12/12 00:34:45;;;;;;;33.33;21.20;;;;;;;;;;5041669;28;20136;-67
2022/12/12 00:37:12;;;;;;;31.45;17.48;;;;;;;;;;5052420;28;20124;-67
2022/12/12 00:39:38;;;;;;;28.48;16.55;;;;;;;;;;5053144;28;20051;-67
2022/12/12 00:42:04;;;;;;;33.30;19.73;;;;;;;;;;5052391;28;20120;-66
2022/12/12 00:44:31;;;;;;;32.30;19.58;;;;;;;;;;5053620;28;20055;-66
2022/12/12 00:46:57;;;;;;;30.83;17.85;;;;;;;;;;5053703;28;20172;-66
2022/12/12 00:49:24;;;;;;;29.58;16.30;;;;;;;;;;5053492;28;20132;-67
2022/12/12 00:51:50;;;;;;;30.70;17.17;;;;;;;;;;5053571;28;20120;-67
2022/12/12 00:54:16;;;;;;;30.15;15.93;;;;;;;;;;5053833;28;20049;-67
2022/12/12 00:56:43;;;;;;;32.15;18.42;;;;;;;;;;5052438;28;20051;-67
2022/12/12 00:59:10;;;;;;;31.92;17.27;;;;;;;;;;5053577;28;20598;-67
2022/12/12 01:01:36;;;;;;;28.23;17.38;;;;;;;;;;5053603;28;20049;-67
2022/12/12 01:04:03;;;;;;;32.78;18.10;;;;;;;;;;5053461;28;20045;-66
2022/12/12 01:06:30;;;;;;;29.25;17.65;;;;;;;;;;5052557;28;20580;-67
2022/12/12 01:08:56;;;;;;;34.80;19.27;;;;;;;;;;5053470;28;20080;-67
2022/12/12 01:11:23;;;;;;;32.20;18.15;;;;;;;;;;5053188;28;20048;-67
2022/12/12 01:13:51;;;;;;;35.38;18.48;;;;;;;;;;5053402;28;20049;-67
2022/12/12 01:16:17;;;;;;;34.40;18.75;;;;;;;;;;5053237;28;20131;-66
2022/12/12 01:18:44;;;;;;;37.05;19.73;;;;;;;;;;5053409;28;20048;-67
2022/12/12 01:21:12;;;;;;;33.13;18.25;;;;;;;;;;5052841;28;20055;-66
2022/12/12 01:23:38;;;;;;;;;;;;;;;;;;5053449;28;20128;-67
2022/12/12 01:26:08;;;;;;;34.28;19.23;;;;;;;;;;5052802;28;20004;-66
2022/12/12 01:28:35;;;;;;;34.65;18.63;;;;;;;;;;5052721;28;20123;-67
2022/12/12 01:31:02;;;;;;;33.87;18.10;;;;;;;;;;5052720;28;20546;-67
2022/12/12 01:33:29;;;;;;;39.22;23.38;;;;;;;;;;5053039;28;20431;-67
2022/12/12 01:35:55;;;;;;;33.95;20.23;;;;;;;;;;5052693;28;20128;-66
2022/12/12 01:38:23;;;;;;;33.13;19.08;;;;;;;;;;5052655;28;20421;-66
2022/12/12 01:40:50;;;;;;;34.88;19.33;;;;;;;;;;5052665;28;20056;-67
2022/12/12 01:43:18;;;;;;;33.37;18.83;;;;;;;;;;5051507;28;20048;-67
2022/12/12 01:46:07;;;;;;;30.90;18.05;;;;;;;;;;5052490;28;20132;-67
2022/12/12 01:48:41;;;;;;;31.77;18.83;;;;;;;;;;5052734;28;20056;-67
2022/12/12 01:51:10;;;;;;;31.10;17.70;;;;;;;;;;5052602;28;20044;-67
2022/12/12 01:53:38;;;;;;;32.75;18.58;;;;;;;;;;5052358;28;20140;-67
2022/12/12 01:56:06;;;;;;;31.50;18.23;;;;;;;;;;5052603;28;20040;-67
2022/12/12 01:58:32;;;;;;;;;;;;;;;;;;5052808;28;20051;-67
2022/12/12 02:00:58;;;;;;;29.33;17.50;;;;;;;;;;5052384;28;19924;-67
2022/12/12 02:03:25;;;;;;;26.38;15.90;;;;;;;;;;5052127;28;20128;-67
2022/12/12 02:05:53;;;;;;;29.23;16.05;;;;;;;;;;5052063;28;20055;-67
2022/12/12 02:08:21;;;;;;;26.35;15.43;;;;;;;;;;5052098;28;20135;-67
2022/12/12 02:10:48;;;;;;;24.73;14.48;;;;;;;;;;5052443;28;20048;-66
2022/12/12 02:13:19;;;;;;;25.80;15.07;;;;;;;;;;5051969;28;20548;-67
2022/12/12 02:16:08;;;;;;;23.95;14.20;;;;;;;;;;5052086;28;20051;-66
2022/12/12 02:18:35;;;;;;;24.83;14.57;;;;;;;;;;5051267;28;20128;-67
2022/12/12 02:21:21;;;;;;;22.60;14.50;;;;;;;;;;5051924;28;20045;-66
2022/12/12 02:24:06;;;;;;;24.67;14.77;;;;;;;;;;5052066;28;20132;-67
2022/12/12 02:26:51;;;;;;;23.95;13.82;;;;;;;;;;5051707;28;20060;-66
2022/12/12 02:29:36;;;;;;;24.27;14.70;;;;;;;;;;5052111;28;20060;-66
2022/12/12 02:32:02;;;;;;;25.38;15.00;;;;;;;;;;5037889;28;20124;-66
2022/12/12 02:34:34;;;;;;;24.42;15.23;;;;;;;;;;5051511;28;20056;-67
2022/12/12 02:37:20;;;;;;;26.15;14.77;;;;;;;;;;5050683;28;20048;-67
2022/12/12 02:39:52;;;;;;;24.33;15.45;;;;;;;;;;5051603;28;20457;-67
2022/12/12 02:42:41;;;;;;;24.25;14.27;;;;;;;;;;5051534;28;20060;-67
2022/12/12 02:45:21;;;;;;;23.38;14.23;;;;;;;;;;5051495;28;20089;-67
2022/12/12 02:47:54;;;;;;;24.85;15.95;;;;;;;;;;5051718;28;20131;-67
2022/12/12 02:50:22;;;;;;;26.77;17.42;;;;;;;;;;5051609;28;20115;-67
2022/12/12 02:52:48;;;;;;;25.98;16.60;;;;;;;;;;5051709;28;20049;-67
2022/12/12 02:55:15;;;;;;;23.90;16.33;;;;;;;;;;5051710;28;20052;-66
2022/12/12 02:57:42;;;;;;;24.17;14.55;;;;;;;;;;5051632;28;20048;-66
2022/12/12 03:00:31;;;;;;;24.60;15.10;;;;;;;;;;5051590;28;20056;-67
2022/12/12 03:07:45;;;;;;;25.95;14.88;;;;;;;;;;5041065;28;20060;-67
2022/12/12 03:08:57;;;;;;;28.15;16.02;;;;;;;;;;5029041;28;20071;-66
2022/12/12 03:11:30;;;;;;;25.15;15.40;;;;;;;;;;5029047;28;20051;-67
2022/12/12 03:13:58;;;;;;;26.83;16.20;;;;;;;;;;5031453;28;20052;-67
2022/12/12 03:16:29;;;;;;;27.13;17.05;;;;;;;;;;5051284;28;20048;-67
2022/12/12 03:18:59;;;;;;;27.02;15.27;;;;;;;;;;5051188;28;20084;-67
2022/12/12 03:21:44;;;;;;;27.15;16.30;;;;;;;;;;5051387;28;20525;-67
2022/12/12 03:24:33;;;;;;;28.73;17.17;;;;;;;;;;5051351;28;20049;-67
2022/12/12 03:27:03;;;;;;;29.88;16.92;;;;;;;;;;5051202;28;20136;-66
2022/12/12 03:29:41;;;;;;;28.05;16.30;;;;;;;;;;5052370;28;20459;-66
2022/12/12 03:32:13;;;;;;;31.50;17.98;;;;;;;;;;5055259;28;20377;-67
2022/12/12 03:34:42;;;;;;;30.58;16.92;;;;;;;;;;5054940;28;20527;-67
2022/12/12 03:37:11;;;;;;;27.83;17.17;;;;;;;;;;5055067;28;20049;-67
2022/12/12 03:39:41;;;;;;;28.95;16.90;;;;;;;;;;5055032;28;20063;-67
2022/12/12 03:42:12;;;;;;;28.45;17.10;;;;;;;;;;5054859;28;20132;-67
2022/12/12 03:44:41;;;;;;;31.05;19.48;;;;;;;;;;5054778;28;20053;-67
2022/12/12 03:47:13;;;;;;;28.65;18.02;;;;;;;;;;5055137;28;20088;-67
2022/12/12 03:49:43;;;;;;;29.15;17.35;;;;;;;;;;5054892;28;20503;-67
2022/12/12 03:52:12;;;;;;;25.02;15.98;;;;;;;;;;5054540;28;20076;-67
2022/12/12 03:54:50;;;;;;;30.02;17.42;;;;;;;;;;5054901;28;20103;-67
2022/12/12 03:57:24;;;;;;;27.05;16.30;;;;;;;;;;5054906;28;20055;-67
2022/12/12 03:59:53;;;;;;;26.05;15.85;;;;;;;;;;5054769;28;20060;-66
2022/12/12 04:02:26;;;;;;;27.30;15.80;;;;;;;;;;5054715;28;20457;-66
2022/12/12 04:04:59;;;;;;;29.45;15.82;;;;;;;;;;5054452;28;20087;-67
2022/12/12 04:07:34;;;;;;;28.92;16.35;;;;;;;;;;5054621;28;20127;-67
2022/12/12 04:12:57;;;;;;;30.15;16.67;;;;;;;;;;5054373;28;20488;-67
2022/12/12 04:15:47;;;;;;;28.95;16.00;;;;;;;;;;5054298;28;20049;-67
2022/12/12 04:18:19;;;;;;;27.55;15.77;;;;;;;;;;5054590;28;20132;-67
2022/12/12 04:23:43;;;;;;;29.83;16.25;;;;;;;;;;5054424;28;20053;-67
2022/12/12 04:29:13;;;;;;;30.52;16.67;;;;;;;;;;5054113;28;20127;-67
2022/12/12 04:31:44;;;;;;;28.00;16.05;;;;;;;;;;5053991;28;20509;-66
2022/12/12 04:34:21;;;;;;;24.98;15.00;;;;;;;;;;5053905;28;20041;-67
2022/12/12 04:36:48;;;;;;;26.60;15.38;;;;;;;;;;5054225;28;20127;-66
2022/12/12 04:39:17;;;;;;;31.60;16.85;;;;;;;;;;5054012;28;20049;-67
2022/12/12 04:41:45;;;;;;;30.65;17.55;;;;;;;;;;5052892;28;20131;-66
2022/12/12 04:44:13;;;;;;;30.13;17.00;;;;;;;;;;5052401;28;20081;-66
2022/12/12 04:46:40;;;;;;;33.47;18.98;;;;;;;;;;5053600;28;20437;-67
2022/12/12 04:49:26;;;;;;;28.92;17.77;;;;;;;;;;5053985;28;20077;-67
2022/12/12 04:51:55;;;;;;;32.70;17.70;;;;;;;;;;5053417;28;20124;-66
2022/12/12 04:54:28;;;;;;;28.33;16.83;;;;;;;;;;5053486;28;20167;-67
2022/12/12 04:56:57;;;;;;;36.50;18.85;;;;;;;;;;5053373;28;20131;-67
2022/12/12 04:59:24;;;;;;;33.15;18.35;;;;;;;;;;5053357;28;20052;-66
2022/12/12 05:01:50;;;;;;;37.60;18.63;;;;;;;;;;5053438;28;20455;-67
2022/12/12 05:04:37;;;;;;;32.28;18.88;;;;;;;;;;5053232;28;20099;-67
2022/12/12 05:07:11;;;;;;;31.80;17.98;;;;;;;;;;5053197;28;20049;-66
2022/12/12 05:09:37;;;;;;;33.63;18.88;;;;;;;;;;5053257;28;20088;-67
2022/12/12 05:12:04;;;;;;;31.10;16.98;;;;;;;;;;5053088;28;20055;-67
2022/12/12 05:14:30;;;;;;;33.58;18.55;;;;;;;;;;5053290;28;20483;-67
2022/12/12 05:16:59;;;;;;;29.70;16.40;;;;;;;;;;5052971;28;20052;-67
2022/12/12 05:19:26;;;;;;;29.80;16.85;;;;;;;;;;5053281;28;20124;-67
2022/12/12 05:21:52;;;;;;;30.85;17.20;;;;;;;;;;5052997;28;20128;-66
2022/12/12 05:24:19;;;;;;;34.92;19.33;;;;;;;;;;5053118;28;20048;-67
2022/12/12 05:26:45;;;;;;;32.78;17.23;;;;;;;;;;5052814;28;20577;-67
2022/12/12 05:29:12;;;;;;;33.17;18.75;;;;;;;;;;5053045;28;20045;-66
2022/12/12 05:31:38;;;;;;;31.75;17.33;;;;;;;;;;5053326;28;20099;-67
2022/12/12 05:34:04;;;;;;;35.55;18.52;;;;;;;;;;5052961;28;20055;-67
2022/12/12 05:36:31;;;;;;;31.48;17.83;;;;;;;;;;5053292;28;20413;-67
2022/12/12 05:38:57;;;;;;;33.33;18.30;;;;;;;;;;5052614;28;20168;-66
2022/12/12 05:41:24;;;;;;;33.45;17.33;;;;;;;;;;5052583;28;20136;-67
2022/12/12 05:43:51;;;;;;;36.95;19.65;;;;;;;;;;5052660;28;20080;-66
2022/12/12 05:46:17;;;;;;;35.30;18.48;;;;;;;;;;5052520;28;20080;-67
2022/12/12 05:48:49;;;;;;;33.80;17.38;;;;;;;;;;5052701;28;20049;-67
2022/12/12 05:51:16;;;;;;;31.05;17.77;;;;;;;;;;5052711;28;20118;-66
2022/12/12 05:53:43;;;;;;;30.83;17.55;;;;;;;;;;5051018;28;20040;-66
2022/12/12 05:56:10;;;;;;;32.17;17.77;;;;;;;;;;5052525;28;20477;-67
2022/12/12 05:58:37;;;;;;;31.42;17.20;;;;;;;;;;5052261;28;20045;-66
2022/12/12 06:01:04;;;;;;;34.80;18.25;;;;;;;;;;5052248;28;20041;-66
2022/12/12 06:03:30;;;;;;;33.85;18.20;;;;;;;;;;5052038;28;20508;-66
2022/12/12 06:05:57;;;;;;;36.05;19.02;;;;;;;;;;5052480;28;20079;-66
2022/12/12 06:08:23;;;;;;;38.42;19.40;;;;;;;;;;5052137;28;20091;-66
2022/12/12 06:10:50;;;;;;;36.80;18.95;;;;;;;;;;5052328;28;20049;-66
2022/12/12 06:13:17;;;;;;;33.85;17.73;;;;;;;;;;5052320;28;20128;-66
2022/12/12 06:15:43;;;;;;;33.90;18.48;;;;;;;;;;5052099;28;20441;-67
2022/12/12 06:18:11;;;;;;;32.63;18.05;;;;;;;;;;5052379;28;20049;-67
2022/12/12 06:20:37;;;;;;;35.67;18.50;;;;;;;;;;5051874;28;20492;-66
2022/12/12 06:23:04;;;;;;;29.83;17.52;;;;;;;;;;5052165;28;20481;-66
2022/12/12 06:25:30;;;;;;;34.97;18.67;;;;;;;;;;5051814;28;20057;-66
2022/12/12 06:27:56;;;;;;;32.72;17.98;;;;;;;;;;5051969;28;20481;-66
2022/12/12 06:30:24;;;;;;;30.95;18.52;;;;;;;;;;5052131;28;20132;-66
2022/12/12 06:32:51;;;;;;;35.38;18.65;;;;;;;;;;5051653;28;20076;-66
2022/12/12 06:35:17;;;;;;;36.20;19.13;;;;;;;;;;5051960;28;20472;-66
2022/12/12 06:37:44;;;;;;;37.95;19.75;;;;;;;;;;5051833;28;20080;-66
2022/12/12 06:40:10;;;;;;;36.25;20.30;;;;;;;;;;5051773;28;20378;-66
2022/12/12 06:42:37;;;;;;;38.47;20.73;;;;;;;;;;5051546;28;20094;-67
2022/12/12 06:45:10;;;;;;;37.55;19.55;;;;;;;;;;5051850;28;20045;-66
2022/12/12 06:47:37;;;;;;;40.42;20.45;;;;;;;;;;5051948;28;20048;-66
2022/12/12 06:50:03;;;;;;;36.83;19.25;;;;;;;;;;5051730;28;20075;-66
2022/12/12 06:52:30;;;;;;;38.05;19.48;;;;;;;;;;5040526;28;20132;-66
2022/12/12 06:54:56;;;;;;;36.75;20.10;;;;;;;;;;5047243;28;20128;-66
2022/12/12 06:57:22;;;;;;;35.95;19.83;;;;;;;;;;5051549;28;20044;-66
2022/12/12 06:59:50;;;;;;;37.08;19.77;;;;;;;;;;5051169;28;20136;-67
2022/12/12 07:02:16;;;;;;;33.40;18.93;;;;;;;;;;5051614;28;20103;-66
2022/12/12 07:04:42;;;;;;;35.42;20.17;;;;;;;;;;5049850;28;20053;-66
2022/12/12 07:07:09;;;;;;;39.70;19.70;;;;;;;;;;5044647;28;20172;-66
2022/12/12 07:09:35;;;;;;;40.83;21.35;;;;;;;;;;5055570;28;20147;-66
2022/12/12 07:12:02;;;;;;;37.35;20.75;;;;;;;;;;5055837;28;20051;-66
2022/12/12 07:14:28;;;;;;;39.13;20.60;;;;;;;;;;5055630;28;20140;-67
2022/12/12 07:16:55;;;;;;;38.58;20.25;;;;;;;;;;5055307;28;20492;-66
2022/12/12 07:19:21;;;;;;;37.95;21.70;;;;;;;;;;5054362;28;20072;-66
2022/12/12 07:21:48;;;;;;;37.33;21.40;;;;;;;;;;5055217;28;20515;-66
2022/12/12 07:24:14;;;;;;;36.08;20.42;;;;;;;;;;5055146;28;20088;-66
2022/12/12 07:26:41;;;;;;;39.50;19.63;;;;;;;;;;5055196;28;20114;-66
2022/12/12 07:29:07;;;;;;;36.65;19.90;;;;;;;;;;5055423;28;20073;-66
2022/12/12 07:31:33;;;;;;;36.17;18.95;;;;;;;;;;5055295;28;20106;-67
2022/12/12 07:34:00;;;;;;;36.45;18.92;;;;;;;;;;5055001;28;20040;-66
2022/12/12 07:36:26;;;;;;;33.90;18.27;;;;;;;;;;5055094;28;20197;-67
2022/12/12 07:38:53;;;;;;;36.00;19.73;;;;;;;;;;5039874;28;20541;-67
2022/12/12 07:41:19;;;;;;;36.28;19.65;;;;;;;;;;5034796;28;20077;-66
2022/12/12 07:43:46;;;;;;;34.40;19.55;;;;;;;;;;5049855;28;20105;-66
2022/12/12 07:46:14;;;;;;;34.42;20.00;;;;;;;;;;5054806;28;20556;-67
2022/12/12 07:48:41;;;;;;;35.25;19.02;;;;;;;;;;5054636;28;20044;-67
2022/12/12 07:51:07;;;;;;;34.17;18.75;;;;;;;;;;5054542;28;20132;-67
2022/12/12 07:53:34;;;;;;;34.50;18.90;;;;;;;;;;5040400;28;20077;-67
2022/12/12 07:56:03;;;;;;;35.95;19.15;;;;;;;;;;5034685;28;20075;-67
2022/12/12 07:58:29;;;;;;;34.05;18.45;;;;;;;;;;5034900;28;20136;-67
2022/12/12 08:00:56;;;;;;;30.88;18.27;;;;;;;;;;5039780;28;20147;-67
2022/12/12 08:03:22;;;;;;;34.20;18.80;;;;;;;;;;5039082;28;20060;-67
2022/12/12 08:05:49;;;;;;;35.25;19.30;;;;;;;;;;5034772;28;20499;-66
2022/12/12 08:08:15;;;;;;;37.80;21.42;;;;;;;;;;5049597;28;20496;-67
2022/12/12 08:10:42;;;;;;;34.63;19.30;;;;;;;;;;5037532;28;20050;-67
2022/12/12 08:13:08;;;;;;;35.28;19.27;;;;;;;;;;5034206;28;20045;-67
2022/12/12 08:15:35;;;;;;;36.10;19.02;;;;;;;;;;5051242;28;20137;-67
2022/12/12 08:18:01;;;;;;;36.10;19.13;;;;;;;;;;5051713;28;20052;-67
2022/12/12 08:20:27;;;;;;;35.25;17.52;;;;;;;;;;5041818;28;20079;-67
2022/12/12 08:22:54;;;;;;;33.97;16.75;;;;;;;;;;5053929;28;20559;-67
2022/12/12 08:25:21;;;;;;;33.85;17.67;;;;;;;;;;5054158;28;20049;-68
2022/12/12 08:27:48;;;;;;;33.78;17.33;;;;;;;;;;5039265;28;20049;-66
2022/12/12 08:30:15;;;;;;;34.50;17.85;;;;;;;;;;5054100;28;20083;-67
2022/12/12 08:32:41;;;;;;;36.55;17.65;;;;;;;;;;5049134;28;20466;-67
2022/12/12 08:35:08;;;;;;;36.30;18.70;;;;;;;;;;5034450;28;20049;-67
2022/12/12 08:37:34;;;;;;;32.42;16.95;;;;;;;;;;5050816;28;20564;-67
2022/12/12 08:40:01;;;;;;;38.78;19.73;;;;;;;;;;5033643;28;20049;-68
2022/12/12 08:42:27;;;;;;;38.55;18.88;;;;;;;;;;5033884;28;20081;-67
2022/12/12 08:44:54;;;;;;;35.08;18.08;;;;;;;;;;5051110;28;20045;-67
2022/12/12 08:47:20;;;;;;;37.28;18.83;;;;;;;;;;5053949;28;20059;-67
2022/12/12 08:49:47;;;;;;;34.97;18.15;;;;;;;;;;5053942;28;20172;-67
2022/12/12 08:52:13;;;;;;;37.83;18.73;;;;;;;;;;5053466;28;20055;-67
2022/12/12 08:54:39;;;;;;;37.03;19.98;;;;;;;;;;5053828;28;20131;-67
2022/12/12 08:57:06;;;;;;;42.33;18.90;;;;;;;;;;5046655;28;20051;-67
2022/12/12 08:59:32;;;;;;;40.60;19.13;;;;;;;;;;5035041;28;20091;-67
2022/12/12 09:01:59;;;;;;;43.38;20.42;;;;;;;;;;5050627;28;20782;-66
2022/12/12 09:04:25;;;;;;;41.58;18.77;;;;;;;;;;5045994;28;20512;-67
2022/12/12 09:06:52;;;;;;;44.00;18.05;;;;;;;;;;5046356;28;20128;-67
2022/12/12 09:09:18;;;;;;;33.50;17.40;;;;;;;;;;5031232;28;20081;-67
2022/12/12 09:11:45;;;;;;;37.28;17.90;;;;;;;;;;5042839;28;20477;-67
2022/12/12 09:14:11;;;;;;;37.53;17.58;;;;;;;;;;5052813;28;20037;-67
2022/12/12 09:16:37;;;;;;;40.10;19.60;;;;;;;;;;5042590;28;20124;-67
2022/12/12 09:19:04;;;;;;;41.53;18.83;;;;;;;;;;5032561;28;20128;-67
2022/12/12 09:21:30;;;;;;;41.97;18.65;;;;;;;;;;5042691;28;20128;-67
2022/12/12 09:23:57;;;;;;;43.75;18.85;;;;;;;;;;5038048;28;20449;-67
2022/12/12 09:26:24;;;;;;;44.28;19.67;;;;;;;;;;5052341;28;20136;-67
2022/12/12 09:28:50;;;;;;;42.70;19.42;;;;;;;;;;5052345;28;20468;-67
2022/12/12 09:31:16;;;;;;;44.25;20.13;;;;;;;;;;5052602;28;20127;-66
2022/12/12 09:33:43;;;;;;;45.00;20.10;;;;;;;;;;5052159;28;20546;-67
2022/12/12 09:36:11;;;;;;;42.58;20.63;;;;;;;;;;5033093;28;20440;-66
2022/12/12 09:38:37;;;;;;;45.60;20.73;;;;;;;;;;5035241;28;20047;-67
2022/12/12 09:41:18;;;;;;;45.13;20.17;;;;;;;;;;5032055;28;20128;-67
2022/12/12 09:44:07;;;;;;;45.25;21.02;;;;;;;;;;5039202;28;20489;-67
2022/12/12 09:46:42;;;;;;;43.13;19.85;;;;;;;;;;5033255;28;20056;-66
2022/12/12 09:49:15;;;;;;;43.28;18.15;;;;;;;;;;5031709;28;20497;-66
2022/12/12 09:51:43;;;;;;;43.67;19.58;;;;;;;;;;5034302;28;20080;-67
2022/12/12 09:54:14;;;;;;;39.95;18.85;;;;;;;;;;5031884;28;20129;-66
2022/12/12 09:56:49;;;;;;;43.88;25.35;;;;;;;;;;5031482;28;20124;-66
2022/12/12 09:59:36;;;;;;;40.25;19.35;;;;;;;;;;5031711;28;20453;-67
2022/12/12 10:02:11;;;;;;;39.57;19.80;;;;;;;;;;5046038;28;20510;-67
2022/12/12 10:04:41;;;;;;;40.28;18.98;;;;;;;;;;5040897;28;20049;-67
2022/12/12 10:07:22;;;;;;;42.75;19.33;;;;;;;;;;5031329;28;20516;-67
2022/12/12 10:10:18;;;;;;;39.92;19.52;;;;;;;;;;5049699;28;20037;-66
2022/12/12 10:12:45;;;;;;;42.25;18.05;;;;;;;;;;5030997;28;20128;-67
2022/12/12 10:15:21;;;;;;;46.45;20.60;;;;;;;;;;5031286;28;20041;-67
2022/12/12 10:17:48;;;;;;;47.15;20.35;;;;;;;;;;5048910;28;20077;-67
2022/12/12 10:20:20;;;;;;;46.38;20.27;;;;;;;;;;5051167;28;20103;-67
2022/12/12 10:22:50;;;;;;;44.75;19.38;;;;;;;;;;5051223;28;20045;-67
2022/12/12 10:25:38;;;;;;;46.13;20.48;;;;;;;;;;5050657;28;20059;-67
2022/12/12 10:28:11;;;;;;;45.90;21.00;;;;;;;;;;5031154;28;20049;-67
2022/12/12 10:30:45;;;;;;;43.25;21.20;;;;;;;;;;5044512;28;20052;-67
2022/12/12 10:33:18;;;;;;;43.08;19.15;;;;;;;;;;5038500;28;20404;-67
2022/12/12 10:35:53;;;;;;;44.50;21.05;;;;;;;;;;5036188;28;20049;-67
2022/12/12 10:38:25;;;;;;;46.13;21.13;;;;;;;;;;5050259;28;20515;-67
2022/12/12 10:40:55;;;;;;;44.17;20.77;;;;;;;;;;5051005;28;20080;-67
2022/12/12 10:43:26;;;;;;;47.30;21.10;;;;;;;;;;5051266;28;20156;-67
2022/12/12 10:46:11;;;;;;;46.42;21.27;;;;;;;;;;5051419;28;20080;-67
2022/12/12 10:48:38;;;;;;;43.28;19.98;;;;;;;;;;5051079;28;20072;-67
2022/12/12 10:51:07;;;;;;;44.38;21.25;;;;;;;;;;5050172;28;20132;-67
2022/12/12 10:53:34;;;;;;;46.47;23.60;;;;;;;;;;5049346;28;20514;-67
2022/12/12 10:56:11;;;;;;;45.10;21.83;;;;;;;;;;5051173;28;20081;-67
2022/12/12 10:58:41;;;;;;;49.15;22.15;;;;;;;;;;5050843;28;20084;-67
2022/12/12 11:01:19;;;;;;;47.90;22.40;;;;;;;;;;5049602;28;20068;-67
2022/12/12 11:04:05;;;;;;;51.22;21.95;;;;;;;;;;5038135;28;20503;-67
2022/12/12 11:06:39;;;;;;;49.88;22.42;;;;;;;;;;5050958;28;20088;-67
2022/12/12 11:09:16;;;;;;;45.80;20.38;;;;;;;;;;5051063;28;20505;-67
2022/12/12 11:11:56;;;;;;;39.22;20.13;;;;;;;;;;5049060;28;20076;-67
2022/12/12 11:14:28;;;;;;;37.58;18.23;;;;;;;;;;5051008;28;20045;-67
2022/12/12 11:16:54;;;;;;;36.92;17.90;;;;;;;;;;5050995;28;20404;-67
2022/12/12 11:19:24;;;;;;;35.83;17.60;;;;;;;;;;5050856;28;20057;-67
2022/12/12 11:21:52;;;;;;;34.05;17.05;;;;;;;;;;5050752;28;20096;-67
2022/12/12 11:24:20;;;;;;;34.25;16.38;;;;;;;;;;5050595;28;20139;-67
2022/12/12 11:26:46;;;;;;;41.00;17.70;;;;;;;;;;5050776;28;20065;-67
2022/12/12 11:29:26;;;;;;;41.38;19.20;;;;;;;;;;5036550;28;20461;-66
2022/12/12 11:31:53;;;;;;;36.85;17.35;;;;;;;;;;5050636;28;20140;-67
2022/12/12 11:34:20;;;;;;;35.95;18.55;;;;;;;;;;5050185;28;20500;-67
2022/12/12 11:36:47;;;;;;;38.28;16.95;;;;;;;;;;5050676;28;20041;-67
2022/12/12 11:39:46;;;;;;;30.45;16.30;;;;;;;;;;5050840;28;20505;-67
2022/12/12 11:42:12;;;;;;;31.42;15.68;;;;;;;;;;5047412;28;20045;-66
2022/12/12 11:44:39;;;;;;;33.55;16.52;;;;;;;;;;5045220;28;20148;-67
2022/12/12 11:47:18;;;;;;;30.30;15.47;;;;;;;;;;5049571;28;20073;-67
2022/12/12 11:49:45;;;;;;;33.10;16.63;;;;;;;;;;5050069;28;20412;-67
2022/12/12 11:52:19;;;;;;;31.52;16.08;;;;;;;;;;5044494;28;20152;-67
2022/12/12 11:54:46;;;;;;;33.35;16.23;;;;;;;;;;5033463;28;20128;-67
2022/12/12 11:57:23;;;;;;;33.13;16.88;;;;;;;;;;5033807;28;20152;-67
2022/12/12 12:00:02;;;;;;;31.42;16.27;;;;;;;;;;5033757;28;20080;-67
2022/12/12 12:02:34;;;;;;;29.52;15.52;;;;;;;;;;5034665;28;20042;-67
2022/12/12 12:05:20;;;;;;;34.03;15.75;;;;;;;;;;5033650;28;20136;-67
2022/12/12 12:07:49;;;;;;;30.20;15.95;;;;;;;;;;5053265;28;20452;-67
2022/12/12 12:10:15;;;;;;;29.67;16.52;;;;;;;;;;5054376;28;20052;-67
2022/12/12 12:12:49;;;;;;;31.38;16.08;;;;;;;;;;5051946;28;20485;-67
2022/12/12 12:15:18;;;;;;;33.22;15.82;;;;;;;;;;5054075;28;20131;-67
2022/12/12 12:18:03;;;;;;;42.70;25.73;;;;;;;;;;5053898;28;20493;-67
2022/12/12 12:20:38;;;;;;;36.35;20.80;;;;;;;;;;5051587;28;20049;-67
2022/12/12 12:23:12;;;;;;;42.85;21.27;;;;;;;;;;5051302;28;20137;-67
2022/12/12 12:26:02;;;;;;;34.17;18.40;;;;;;;;;;5042068;28;20118;-67
2022/12/12 12:28:43;;;;;;;35.78;17.80;;;;;;;;;;5040071;28;20100;-67
2022/12/12 12:31:12;;;;;;;36.35;17.75;;;;;;;;;;5040270;28;20386;-67
2022/12/12 12:33:51;;;;;;;32.90;16.67;;;;;;;;;;5053358;28;20052;-66
2022/12/12 12:36:21;;;;;;;36.75;17.77;;;;;;;;;;5053590;28;20049;-67
2022/12/12 12:39:06;;;;;;;34.22;17.02;;;;;;;;;;5053409;28;20550;-67
2022/12/12 12:41:49;;;;;;;59.85;34.75;;;;;;;;;;5053261;28;20053;-67
2022/12/12 12:44:16;;;;;;;33.72;17.25;;;;;;;;;;5052035;28;20132;-67
2022/12/12 12:47:01;;;;;;;31.23;16.55;;;;;;;;;;5053191;28;20492;-68
2022/12/12 12:49:31;;;;;;;31.05;17.05;;;;;;;;;;5053435;28;20130;-67
2022/12/12 12:52:15;;;;;;;33.65;18.60;;;;;;;;;;5053335;28;20140;-66
2022/12/12 12:54:46;;;;;;;36.05;18.48;;;;;;;;;;5053152;28;20041;-66
2022/12/12 12:57:12;;;;;;;35.55;19.02;;;;;;;;;;5053316;28;20461;-67
2022/12/12 12:59:53;;;;;;;35.22;19.27;;;;;;;;;;5052973;28;20507;-67
2022/12/12 13:02:23;;;;;;;34.78;19.83;;;;;;;;;;5051938;28;20089;-68
2022/12/12 13:04:56;;;;;;;39.58;22.63;;;;;;;;;;5053087;28;20444;-66
2022/12/12 13:07:30;;;;;;;38.72;18.13;;;;;;;;;;5052778;28;20143;-66
2022/12/12 13:10:14;;;;;;;35.70;17.73;;;;;;;;;;5043608;28;20138;-67
2022/12/12 13:12:43;;;;;;;39.63;18.88;;;;;;;;;;5040102;28;20473;-66
2022/12/12 13:15:09;;;;;;;;;;;;;;;;;;5048071;28;20192;-66
2022/12/12 13:17:35;;;;;;;39.58;17.83;;;;;;;;;;5052657;28;19930;-66
2022/12/12 13:20:02;;;;;;;39.95;19.20;;;;;;;;;;5052634;28;20051;-66
2022/12/12 13:22:38;;;;;;;33.40;17.77;;;;;;;;;;5052678;28;20119;-66
2022/12/12 13:25:10;;;;;;;35.95;18.27;;;;;;;;;;5052541;28;20479;-66
2022/12/12 13:27:44;;;;;;;35.70;17.55;;;;;;;;;;5049312;28;20132;-66
2022/12/12 13:30:15;;;;;;;37.33;18.42;;;;;;;;;;5052732;28;20172;-66
2022/12/12 13:33:00;;;;;;;39.95;19.58;;;;;;;;;;5045869;28;20081;-66
2022/12/12 13:35:32;;;;;;;40.38;18.90;;;;;;;;;;5047111;28;20083;-66
2022/12/12 13:37:59;;;;;;;30.90;17.08;;;;;;;;;;5052831;28;20127;-66
2022/12/12 13:40:30;;;;;;;23.25;12.30;;;;;;;;;;5031641;28;20128;-65
2022/12/12 13:42:56;;;;;;;26.70;14.45;;;;;;;;;;5039105;28;20072;-66
2022/12/12 13:45:32;;;;;;;21.42;11.80;;;;;;;;;;5034990;28;20412;-67
2022/12/12 13:48:03;;;;;;;24.60;12.68;;;;;;;;;;5031663;28;20064;-66
2022/12/12 13:50:30;;;;;;;22.05;12.15;;;;;;;;;;5036039;28;20129;-66
2022/12/12 13:53:05;;;;;;;25.15;13.13;;;;;;;;;;5032393;28;20132;-66
2022/12/12 13:55:32;;;;;;;22.20;11.73;;;;;;;;;;5052140;28;20499;-66
2022/12/12 13:58:04;;;;;;;17.75;9.82;;;;;;;;;;5036275;28;20132;-66
2022/12/12 14:00:35;;;;;;;21.10;10.45;;;;;;;;;;5051806;28;20087;-66
2022/12/12 14:03:04;;;;;;;21.35;12.15;;;;;;;;;;5052071;28;20055;-66
2022/12/12 14:05:41;;;;;;;24.10;12.13;;;;;;;;;;5038872;28;20140;-66
2022/12/12 14:08:11;;;;;;;21.50;11.45;;;;;;;;;;5039873;28;20476;-66
2022/12/12 14:10:56;;;;;;;24.23;12.68;;;;;;;;;;5049610;28;20044;-66
2022/12/12 14:13:22;;;;;;;25.10;12.73;;;;;;;;;;5047103;28;20159;-66
2022/12/12 14:16:06;;;;;;;22.90;12.85;;;;;;;;;;5051182;28;20106;-66
2022/12/12 14:18:40;;;;;;;23.20;13.27;;;;;;;;;;5052068;28;20111;-67
2022/12/12 14:21:11;;;;;;;23.67;13.25;;;;;;;;;;5050657;28;20131;-66
2022/12/12 14:23:39;;;;;;;25.80;13.57;;;;;;;;;;5052204;28;20108;-66
2022/12/12 14:26:26;;;;;;;23.77;13.13;;;;;;;;;;5051813;28;20049;-66
2022/12/12 14:29:11;;;;;;;25.23;13.48;;;;;;;;;;5051895;28;20223;-67
2022/12/12 14:31:40;;;;;;;24.67;13.18;;;;;;;;;;5051609;28;20656;-66
2022/12/12 14:34:19;;;;;;;22.67;13.52;;;;;;;;;;5051493;28;20080;-66
2022/12/12 14:36:55;;;;;;;26.13;12.65;;;;;;;;;;5052113;28;20161;-66
2022/12/12 14:39:27;;;;;;;26.92;13.43;;;;;;;;;;5051413;28;20503;-67
2022/12/12 14:41:55;;;;;;;28.33;13.48;;;;;;;;;;5051623;28;20560;-66
2022/12/12 14:44:28;;;;;;;26.37;13.37;;;;;;;;;;5051563;28;20143;-66
2022/12/12 14:47:07;;;;;;;26.95;12.82;;;;;;;;;;5052007;28;20331;-66
2022/12/12 14:49:33;;;;;;;26.23;13.38;;;;;;;;;;5051478;28;20566;-66